Tychy, Poland
Current Conditions -  °F | °C
As of 10:30 AM on Sunday 21 Dec 2014 (Local Time) from EPKT Reporting Station
Snow Showers Snow Showers  
Wind Chill: 23°   Ceiling: 1500
Heat Index: 34°   Visibility: 1.2mi
Dew Point: 32°   Wind: 18mph
Humidity: 93%   Direction: 290°WNW
Pressure: 30.09"   Gusts: 30mph
Location:  50.16°N, 19°E
Report Text: EPKT 210830Z 29016G26KT 2000 -SHSN FEW002 SCT005 BKN015CB 01/00 Q1019
Loading
Personal Weather Stations






























Interactive Weather Map New forecast layout! Learn more

10-Day Weather Forecast

Advertisements
Track Severe Weather on mobile